ΕΜΥ, Εθνική Μετεωρολογική Υπηρεσία - Δελτία Καιρού, Προγνώσεις

ΑΕΡΟΝΑΥΤΙΛΙΑ

GREEK AIRPORTS CODES

LGSR 050420Z 00000KT 9999 -RA FEW015 SCT020 09/07 Q1005 RERA=

EUROPEAN AIRPORTS CODES

LFPO 050430Z 32005KT 9999 OVC045 07/03 Q1040 NOSIG=